Latest Weather Observations for Lochington

IDQ60801

Issued at 9:02 pm EST Tuesday 24 October 2017 (issued every 30 minutes, with the page automatically refreshed every 10 minutes)

About weather observations | Map of weather stations | Latest weather observations for QLD | Other Formats
Station Details ID: 035139 Name: LOCHINGTON Lat: -23.94 Lon: 147.53 Height: 267.19 m
Data from the previous 72 hours. | See also: Recent months at Lochington
Date/Time
EST
Temp
°C
App
Temp
°C
Dew
Point
°C
Rel
Hum
%
Delta-T
°C
Wind Press
QNH
hPa
Press
MSL
hPa
Rain since
9am
mm
Dir  Spd
km/h
Gust
km/h
Spd
kts
Gust
kts
24/08:30pm 23.1 22.1 12.4 51 6.2 NE 9 11 5 6 1017.5 1016.1 0.0
24/08:00pm 23.7 22.8 12.7 50 6.4 NE 9 11 5 6 1017.2 1015.8 0.0
24/07:30pm 24.7 23.8 12.6 47 7.0 NE 9 13 5 7 1016.9 1015.5 0.0
24/07:00pm 25.3 24.4 12.5 45 7.5 NE 9 13 5 7 1016.7 1015.3 0.0
24/06:30pm 25.9 25.1 11.6 40 8.2 ENE 7 9 4 5 1016.4 1015.0 0.0
24/06:00pm 27.1 26.6 10.8 36 9.3 ENE 4 7 2 4 1016.3 1014.9 0.0
24/05:30pm 28.4 27.3 10.6 33 10.2 NE 7 13 4 7 1015.8 1014.5 0.0
24/05:00pm 28.9 28.7 10.6 32 10.5 E 2 9 1 5 1015.6 1014.3 0.0
24/04:30pm 29.4 29.2 10.5 31 10.9 ENE 2 7 1 4 1015.3 1014.0 0.0
24/04:00pm 29.7 29.2 10.8 31 10.9 NNW 4 9 2 5 1015.2 1013.9 0.0
24/03:30pm 29.1 28.2 10.7 32 10.6 N 6 9 3 5 1015.4 1014.1 0.0
24/03:00pm 29.2 28.1 10.8 32 10.6 NNE 7 19 4 10 1015.6 1014.3 0.0
24/02:30pm 28.9 28.0 10.6 32 10.5 NNW 6 11 3 6 1016.2 1014.8 0.0
24/02:00pm 27.6 26.8 11.2 36 9.4 NE 6 9 3 5 1016.7 1015.3 0.0
24/01:30pm 27.2 25.6 11.7 38 9.0 NE 11 20 6 11 1017.0 1015.6 0.0
24/01:00pm 28.1 27.5 13.6 41 8.7 NNE 9 22 5 12 1017.4 1016.0 0.0
24/12:30pm 27.3 25.6 13.6 43 8.2 N 15 24 8 13 1018.0 1016.7 0.0
24/12:00pm 26.4 25.5 14.8 49 7.0 NNE 13 24 7 13 1018.5 1017.2 0.0
24/11:30am 26.1 25.5 14.6 49 7.0 N 11 20 6 11 1019.0 1017.7 0.0
24/11:00am 25.7 24.9 15.1 52 6.4 N 13 22 7 12 1019.4 1018.1 0.0
24/10:30am 25.3 25.1 15.6 55 5.9 ENE 11 22 6 12 1019.7 1018.4 0.0
24/10:00am 24.1 23.3 15.1 57 5.4 NNE 13 22 7 12 1020.1 1018.7 0.0
24/09:30am 23.5 22.8 15.3 60 5.0 NE 13 22 7 12 1020.2 1018.8 0.0
24/09:00am 22.3 21.0 14.9 63 4.4 NE 15 26 8 14 1020.1 1018.7 -
24/08:30am 22.9 21.4 15.2 62 4.6 ENE 17 24 9 13 1019.9 1018.6 -
24/08:00am 21.3 19.7 14.9 67 3.8 NE 17 26 9 14 1019.8 1018.5 -
24/07:30am 21.5 20.6 15.8 70 3.5 ENE 15 20 8 11 1019.4 1018.1 -
24/07:00am 20.3 19.3 15.7 75 2.8 ENE 15 22 8 12 1019.1 1017.8 -
24/06:30am 17.9 19.7 15.5 86 1.4 CALM 0 4 0 2 1018.8 1017.5 -
24/06:00am 15.5 16.7 13.9 90 0.9 CALM 0 0 0 0 1018.6 1017.3 -
24/05:30am 15.3 16.2 12.8 85 1.4 CALM 0 0 0 0 1018.1 1016.8 -
24/05:00am 16.0 16.6 13.1 83 1.6 NE 2 6 1 3 1017.7 1016.3 -
24/04:30am 16.7 15.9 13.0 79 2.1 E 9 13 5 7 1017.2 1015.8 -
24/04:00am 16.7 15.6 12.0 74 2.6 E 9 11 5 6 1016.5 1015.1 -
24/03:30am 16.4 15.4 10.9 70 3.0 E 7 13 4 7 1016.0 1014.7 -
24/03:00am 16.4 15.4 11.1 71 2.9 E 7 9 4 5 1015.6 1014.3 -
24/02:30am 16.7 15.7 11.0 69 3.1 E 7 11 4 6 1015.5 1014.2 0.0
24/02:00am 16.8 15.9 11.3 70 3.0 E 7 7 4 4 1015.3 1014.0 0.0
24/01:30am 16.6 15.6 11.1 70 3.0 E 7 9 4 5 1015.6 1014.3 0.0
24/01:00am 17.7 16.8 10.8 64 3.8 E 6 9 3 5 1015.7 1014.4 0.0
24/12:30am 19.3 17.5 10.8 58 4.7 NE 11 11 6 6 1015.5 1014.2 0.0
24/12:00am 18.9 19.3 11.2 61 4.3 CALM 0 0 0 0 1015.6 1014.3 0.0
 
Date/Time
EST
Temp
°C
App
Temp
°C
Dew
Point
°C
Rel
Hum
%
Delta-T
°C
Wind Press
QNH
hPa
Press
MSL
hPa
Rain since
9am
mm
Dir  Spd
km/h
Gust
km/h
Spd
kts
Gust
kts
23/11:30pm 18.9 19.4 11.7 63 4.0 CALM 0 0 0 0 1015.7 1014.4 0.0
23/11:00pm 19.7 20.0 10.9 57 4.9 CALM 0 0 0 0 1015.9 1014.6 0.0
23/10:30pm 18.5 18.4 12.0 66 3.6 WSW 4 11 2 6 1015.7 1014.4 0.0
23/10:00pm 18.8 19.5 12.1 65 3.8 CALM 0 0 0 0 1015.4 1014.1 0.0
23/09:30pm 19.2 19.8 12.0 63 4.0 CALM 0 0 0 0 1015.2 1013.9 0.0
23/09:00pm 20.5 20.8 10.9 54 5.3 CALM 0 0 0 0 1015.0 1013.7 0.0
23/08:30pm 22.4 21.5 7.8 39 7.7 ENE 2 9 1 5 1014.6 1013.3 0.0
23/08:00pm 21.3 20.7 8.9 45 6.7 E 2 4 1 2 1014.3 1012.9 0.0
23/07:30pm 24.7 22.8 6.9 32 9.4 ENE 6 9 3 5 1013.8 1012.4 0.0
23/07:00pm 24.3 22.3 6.1 31 9.4 ENE 6 7 3 4 1013.5 1012.1 0.0
23/06:30pm 24.4 22.8 6.2 31 9.5 E 4 6 2 3 1013.1 1011.7 0.0
23/06:00pm 26.6 25.4 6.6 28 10.6 E 2 6 1 3 1012.8 1011.4 0.0
23/05:30pm 28.1 25.8 5.0 23 12.0 SE 6 11 3 6 1012.4 1011.0 0.0
23/05:00pm 28.7 26.7 4.2 21 12.6 E 4 9 2 5 1012.0 1010.7 0.0
23/04:30pm 28.8 26.5 5.0 22 12.4 SSE 6 11 3 6 1011.8 1010.5 0.0
23/04:00pm 29.3 27.5 5.4 22 12.6 SW 4 9 2 5 1011.8 1010.5 0.0
23/03:30pm 28.8 26.1 3.6 20 12.9 SE 7 15 4 8 1011.9 1010.6 0.0
23/03:00pm 28.9 26.5 5.1 22 12.5 SSE 7 17 4 9 1012.0 1010.7 0.0
23/02:30pm 28.7 26.9 5.5 23 12.2 SW 4 13 2 7 1012.3 1010.9 0.0
23/02:00pm 28.4 25.5 4.6 22 12.3 S 9 15 5 8 1012.7 1011.3 0.0
23/01:30pm 28.4 24.9 5.3 23 12.1 SE 13 20 7 11 1013.0 1011.6 0.0
23/01:00pm 27.8 25.6 6.0 25 11.5 W 7 20 4 11 1013.5 1012.1 0.0
23/12:30pm 27.6 26.6 7.5 28 10.9 SSW 2 7 1 4 1013.9 1012.5 0.0
23/12:00pm 27.2 24.7 6.6 27 11.0 NNW 9 19 5 10 1014.5 1013.2 0.0
23/11:30am 26.8 24.9 6.8 28 10.7 ESE 6 15 3 8 1014.7 1013.4 0.0
23/11:00am 26.1 24.0 5.7 27 10.6 N 6 15 3 8 1015.0 1013.7 0.0
23/10:30am 26.3 24.7 8.8 33 9.6 E 7 15 4 8 1015.5 1014.2 0.0
23/10:00am 25.8 24.5 9.2 35 9.2 ENE 6 11 3 6 1015.7 1014.4 0.0
23/09:30am 24.2 23.5 8.6 37 8.5 WNW 2 7 1 4 1015.9 1014.6 0.0
23/09:00am 22.9 22.7 10.3 45 7.0 WSW 2 6 1 3 1016.0 1014.7 0.0
23/08:30am 21.4 21.3 9.6 47 6.4 CALM 0 6 0 3 1015.8 1014.5 0.0
23/08:00am 20.4 19.9 9.3 49 6.0 NNE 2 6 1 3 1015.5 1014.2 0.0
23/07:30am 18.9 19.0 10.2 57 4.7 CALM 0 0 0 0 1014.8 1013.5 0.0
23/07:00am 16.5 16.8 11.0 70 3.0 CALM 0 0 0 0 1014.5 1013.2 0.0
23/06:30am 14.8 15.1 11.0 78 2.0 CALM 0 0 0 0 1014.4 1013.0 0.0
23/06:00am 13.1 13.4 11.0 87 1.1 CALM 0 0 0 0 1014.2 1012.8 0.0
23/05:30am 13.4 13.6 10.6 83 1.5 CALM 0 0 0 0 1013.7 1012.3 0.0
23/05:00am 13.7 14.0 10.9 83 1.5 CALM 0 0 0 0 1013.9 1012.5 0.0
23/04:30am 13.7 13.6 10.9 83 1.5 WNW 2 6 1 3 1013.5 1012.1 0.0
23/04:00am 14.3 13.8 10.7 79 1.9 WNW 4 9 2 5 1013.3 1011.9 0.0
23/03:30am 14.7 14.8 10.1 74 2.4 CALM 0 0 0 0 1013.1 1011.7 0.0
23/03:00am 15.4 15.5 10.0 70 2.9 CALM 0 0 0 0 1012.9 1011.5 0.0
23/02:30am 16.7 14.5 9.4 62 3.8 E 11 17 6 9 1013.1 1011.7 0.0
23/02:00am 18.0 15.1 8.3 53 5.0 ESE 13 20 7 11 1013.3 1011.9 0.0
23/01:30am 18.5 14.9 8.2 51 5.4 SE 17 26 9 14 1013.7 1012.3 0.0
23/01:00am 18.0 14.3 9.6 58 4.5 SSE 19 30 10 16 1014.1 1012.7 0.0
23/12:30am 19.2 15.4 9.1 52 5.4 S 19 41 10 22 1014.4 1013.0 0.0
23/12:00am 19.1 19.2 11.4 61 4.3 ESE 2 6 1 3 1013.5 1012.1 0.0
 
Date/Time
EST
Temp
°C
App
Temp
°C
Dew
Point
°C
Rel
Hum
%
Delta-T
°C
Wind Press
QNH
hPa
Press
MSL
hPa
Rain since
9am
mm
Dir  Spd
km/h
Gust
km/h
Spd
kts
Gust
kts
22/11:30pm 19.0 19.2 12.0 64 3.9 ESE 2 9 1 5 1013.6 1012.2 0.0
22/11:00pm 20.9 21.1 10.7 52 5.6 CALM 0 0 0 0 1013.6 1012.2 0.0
22/10:30pm 21.0 20.7 11.3 54 5.4 E 4 6 2 3 1013.6 1012.2 0.0
22/10:00pm 21.4 21.8 11.1 52 5.8 CALM 0 6 0 3 1013.1 1011.7 0.0
22/09:30pm 20.9 20.8 12.1 57 5.0 E 4 9 2 5 1013.1 1011.7 0.0
22/09:00pm 20.0 21.3 14.1 69 3.5 CALM 0 0 0 0 1012.6 1011.2 0.0
22/08:30pm 21.1 22.1 13.3 61 4.5 CALM 0 0 0 0 1012.1 1010.8 0.0
22/08:00pm 21.7 22.3 12.0 54 5.5 CALM 0 0 0 0 1011.9 1010.6 0.0
22/07:30pm 23.1 22.6 8.0 38 8.1 CALM 0 0 0 0 1011.6 1010.3 0.0
22/07:00pm 23.7 23.1 7.3 35 8.7 CALM 0 0 0 0 1011.4 1010.1 0.0
22/06:30pm 24.0 23.1 7.6 35 8.7 ESE 2 6 1 3 1011.0 1009.6 0.0
22/06:00pm 25.0 24.6 8.1 34 9.1 CALM 0 0 0 0 1010.6 1009.2 0.0
22/05:30pm 27.7 27.0 7.0 27 11.1 CALM 0 0 0 0 1010.2 1008.8 0.0
22/05:00pm 28.5 27.3 6.6 25 11.8 W 2 7 1 4 1010.0 1008.6 0.0
22/04:30pm 28.5 27.6 7.7 27 11.4 SW 2 11 1 6 1009.8 1008.4 0.0
22/04:00pm 27.9 26.6 7.7 28 11.0 SSE 4 9 2 5 1010.0 1008.6 0.0
22/03:30pm 28.0 26.7 7.8 28 11.0 SSE 4 11 2 6 1010.1 1008.7 0.0
22/03:00pm 28.1 25.2 4.4 22 12.2 WSW 9 15 5 8 1010.4 1009.0 0.0
22/02:30pm 28.5 26.6 7.7 27 11.4 W 7 17 4 9 1010.6 1009.2 0.0
22/02:00pm 27.8 26.0 8.1 29 10.8 SW 7 19 4 10 1011.0 1009.6 0.0
22/01:30pm 27.1 26.0 8.5 31 10.2 SSW 4 7 2 4 1011.5 1010.2 0.0
22/01:00pm 26.7 25.3 9.5 34 9.6 SSW 7 17 4 9 1012.0 1010.7 0.0
22/12:30pm 26.8 25.6 9.6 34 9.6 SW 6 17 3 9 1012.5 1011.1 0.0
22/12:00pm 25.4 23.8 8.8 35 9.1 SSW 7 19 4 10 1013.0 1011.6 0.0
22/11:30am 25.3 23.5 9.6 37 8.7 SSW 9 19 5 10 1013.4 1012.0 0.0
22/11:00am 24.5 22.7 9.6 39 8.2 S 9 20 5 11 1013.8 1012.4 0.0
22/10:30am 24.2 22.9 9.8 40 8.0 SSW 7 13 4 7 1014.1 1012.7 0.0
22/10:00am 23.6 22.5 9.9 42 7.6 SSE 6 15 3 8 1014.3 1012.9 0.0
22/09:30am 22.8 21.7 10.6 46 6.8 SW 7 15 4 8 1014.4 1013.0 0.0
22/09:00am 22.1 21.8 12.6 55 5.5 SSE 6 15 3 8 1014.7 1013.4 0.2
22/08:30am 21.3 23.2 15.8 71 3.3 CALM 0 7 0 4 1014.7 1013.4 0.2
22/08:00am 19.9 21.4 15.7 77 2.5 W 2 7 1 4 1014.7 1013.4 0.2
22/07:30am 18.5 20.1 15.0 80 2.1 CALM 0 6 0 3 1014.3 1012.9 0.2
22/07:00am 17.6 19.2 15.0 85 1.5 CALM 0 0 0 0 1014.0 1012.6 0.2
22/06:30am 16.7 18.5 15.4 92 0.8 CALM 0 0 0 0 1014.0 1012.6 0.2
22/06:00am 15.6 17.4 15.4 99 0.1 CALM 0 0 0 0 1014.0 1012.6 0.2
22/05:30am 15.4 17.0 14.9 97 0.3 CALM 0 0 0 0 1013.5 1012.1 0.2
22/05:00am 16.0 17.9 15.7 98 0.2 CALM 0 0 0 0 1013.2 1011.8 0.2
22/04:30am 15.9 17.6 15.3 96 0.4 CALM 0 0 0 0 1013.1 1011.7 0.2
22/04:00am 16.4 18.2 15.6 95 0.5 CALM 0 0 0 0 1012.9 1011.5 0.2
22/03:30am 17.0 19.2 16.5 97 0.3 CALM 0 0 0 0 1012.7 1011.3 0.2
22/03:00am 17.2 19.5 16.7 97 0.3 CALM 0 0 0 0 1012.9 1011.5 0.2
22/02:30am 17.7 20.2 17.2 97 0.3 CALM 0 0 0 0 1013.1 1011.7 0.2
22/02:00am 17.4 19.8 17.1 98 0.2 CALM 0 0 0 0 1013.2 1011.8 0.2
22/01:30am 17.1 19.3 16.5 96 0.4 CALM 0 0 0 0 1013.3 1011.9 0.2
22/01:00am 17.4 19.7 16.8 96 0.4 CALM 0 0 0 0 1013.6 1012.2 0.2
22/12:30am 17.8 20.2 17.0 95 0.5 CALM 0 0 0 0 1013.5 1012.1 0.2
22/12:00am 18.0 20.5 17.2 95 0.5 CALM 0 0 0 0 1013.9 1012.5 0.2
 
Date/Time
EST
Temp
°C
App
Temp
°C
Dew
Point
°C
Rel
Hum
%
Delta-T
°C
Wind Press
QNH
hPa
Press
MSL
hPa
Rain since
9am
mm
Dir  Spd
km/h
Gust
km/h
Spd
kts
Gust
kts
21/11:30pm 18.1 20.5 17.0 93 0.7 CALM 0 0 0 0 1014.1 1012.7 0.2
21/11:00pm 18.5 20.9 17.0 91 0.9 CALM 0 0 0 0 1014.3 1012.9 0.2
21/10:30pm 19.1 21.6 17.2 89 1.2 CALM 0 0 0 0 1014.4 1013.0 0.2
21/10:00pm 19.2 21.7 17.3 89 1.2 CALM 0 0 0 0 1014.4 1013.0 0.2
21/09:30pm 18.9 20.4 16.7 87 1.3 E 4 11 2 6 1014.3 1012.9 0.2

Other Formats:

Comma delimited format used in spreadsheet applications
http://www.bom.gov.au/fwo/IDQ60801/IDQ60801.94399.axf

JavaScript Object Notation format (JSON) in row-major order
http://www.bom.gov.au/fwo/IDQ60801/IDQ60801.94399.json